sensor_id;sensor_type;location;lat;lon;timestamp;temperature;humidity
77218;DHT22;66214;51.302;17.068;2023-12-22T00:00:37;4.97;82.43
77218;DHT22;66214;51.302;17.068;2023-12-22T00:03:38;4.97;81.55
77218;DHT22;66214;51.302;17.068;2023-12-22T00:06:06;4.97;81.26
77218;DHT22;66214;51.302;17.068;2023-12-22T00:08:34;4.98;81.43
77218;DHT22;66214;51.302;17.068;2023-12-22T00:11:02;5.00;80.99
77218;DHT22;66214;51.302;17.068;2023-12-22T00:13:31;4.92;81.09
77218;DHT22;66214;51.302;17.068;2023-12-22T00:16:00;4.75;81.44
77218;DHT22;66214;51.302;17.068;2023-12-22T00:18:29;4.61;81.69
77218;DHT22;66214;51.302;17.068;2023-12-22T00:20:57;4.51;81.97
77218;DHT22;66214;51.302;17.068;2023-12-22T00:23:25;4.43;82.70
77218;DHT22;66214;51.302;17.068;2023-12-22T00:25:53;4.36;82.97
77218;DHT22;66214;51.302;17.068;2023-12-22T00:28:21;4.33;82.25
77218;DHT22;66214;51.302;17.068;2023-12-22T00:30:49;4.33;81.95
77218;DHT22;66214;51.302;17.068;2023-12-22T00:33:18;4.31;82.01
77218;DHT22;66214;51.302;17.068;2023-12-22T00:35:46;4.32;82.34
77218;DHT22;66214;51.302;17.068;2023-12-22T00:38:14;4.37;82.27
77218;DHT22;66214;51.302;17.068;2023-12-22T00:40:42;4.44;81.78
77218;DHT22;66214;51.302;17.068;2023-12-22T00:43:10;4.48;80.85
77218;DHT22;66214;51.302;17.068;2023-12-22T00:45:38;4.52;80.19
77218;DHT22;66214;51.302;17.068;2023-12-22T00:48:06;4.58;79.50
77218;DHT22;66214;51.302;17.068;2023-12-22T00:50:35;4.64;78.78
77218;DHT22;66214;51.302;17.068;2023-12-22T00:53:03;4.68;78.12
77218;DHT22;66214;51.302;17.068;2023-12-22T00:55:31;4.69;78.47
77218;DHT22;66214;51.302;17.068;2023-12-22T00:58:00;4.65;77.04
77218;DHT22;66214;51.302;17.068;2023-12-22T01:00:28;4.63;77.14
77218;DHT22;66214;51.302;17.068;2023-12-22T01:02:56;4.63;76.35
77218;DHT22;66214;51.302;17.068;2023-12-22T01:05:24;4.67;75.17
77218;DHT22;66214;51.302;17.068;2023-12-22T01:07:52;4.64;74.94
77218;DHT22;66214;51.302;17.068;2023-12-22T01:10:20;4.61;74.88
77218;DHT22;66214;51.302;17.068;2023-12-22T01:12:48;4.59;73.74
77218;DHT22;66214;51.302;17.068;2023-12-22T01:15:16;4.60;73.19
77218;DHT22;66214;51.302;17.068;2023-12-22T01:17:45;4.63;73.57
77218;DHT22;66214;51.302;17.068;2023-12-22T01:20:13;4.61;73.94
77218;DHT22;66214;51.302;17.068;2023-12-22T01:26:09;4.67;75.97
77218;DHT22;66214;51.302;17.068;2023-12-22T01:28:37;4.65;75.76
77218;DHT22;66214;51.302;17.068;2023-12-22T01:31:05;4.60;76.19
77218;DHT22;66214;51.302;17.068;2023-12-22T01:33:33;4.51;76.62
77218;DHT22;66214;51.302;17.068;2023-12-22T01:36:01;4.41;77.07
77218;DHT22;66214;51.302;17.068;2023-12-22T01:38:29;4.33;77.87
77218;DHT22;66214;51.302;17.068;2023-12-22T01:40:57;4.28;77.88
77218;DHT22;66214;51.302;17.068;2023-12-22T01:43:25;4.25;78.06
77218;DHT22;66214;51.302;17.068;2023-12-22T01:45:57;4.21;77.56
77218;DHT22;66214;51.302;17.068;2023-12-22T01:48:27;4.18;77.44
77218;DHT22;66214;51.302;17.068;2023-12-22T01:50:56;4.13;77.52
77218;DHT22;66214;51.302;17.068;2023-12-22T01:53:27;4.12;77.24
77218;DHT22;66214;51.302;17.068;2023-12-22T01:55:56;4.12;77.25
77218;DHT22;66214;51.302;17.068;2023-12-22T01:58:28;4.10;76.77
77218;DHT22;66214;51.302;17.068;2023-12-22T02:00:58;4.07;76.11
77218;DHT22;66214;51.302;17.068;2023-12-22T02:03:26;4.10;75.57
77218;DHT22;66214;51.302;17.068;2023-12-22T02:05:55;4.09;75.71
77218;DHT22;66214;51.302;17.068;2023-12-22T02:08:24;4.07;76.19
77218;DHT22;66214;51.302;17.068;2023-12-22T02:10:55;4.04;76.56
77218;DHT22;66214;51.302;17.068;2023-12-22T02:13:23;4.06;76.32
77218;DHT22;66214;51.302;17.068;2023-12-22T02:15:55;4.06;76.08
77218;DHT22;66214;51.302;17.068;2023-12-22T02:18:35;4.05;76.02
77218;DHT22;66214;51.302;17.068;2023-12-22T02:21:07;4.03;75.62
77218;DHT22;66214;51.302;17.068;2023-12-22T02:23:35;4.03;74.78
77218;DHT22;66214;51.302;17.068;2023-12-22T02:26:08;4.07;74.35
77218;DHT22;66214;51.302;17.068;2023-12-22T02:28:47;4.11;74.06
77218;DHT22;66214;51.302;17.068;2023-12-22T02:31:17;4.14;73.57
77218;DHT22;66214;51.302;17.068;2023-12-22T02:34:07;4.14;73.90
77218;DHT22;66214;51.302;17.068;2023-12-22T02:36:41;4.15;73.41
77218;DHT22;66214;51.302;17.068;2023-12-22T02:39:11;4.14;73.74
77218;DHT22;66214;51.302;17.068;2023-12-22T02:41:41;4.14;73.77
77218;DHT22;66214;51.302;17.068;2023-12-22T02:44:10;4.16;73.75
77218;DHT22;66214;51.302;17.068;2023-12-22T02:46:38;4.19;73.91
77218;DHT22;66214;51.302;17.068;2023-12-22T02:49:08;4.18;74.24
77218;DHT22;66214;51.302;17.068;2023-12-22T02:51:36;4.16;73.81
77218;DHT22;66214;51.302;17.068;2023-12-22T02:54:04;4.11;73.94
77218;DHT22;66214;51.302;17.068;2023-12-22T02:59:51;4.05;73.62
77218;DHT22;66214;51.302;17.068;2023-12-22T03:02:19;4.02;73.50
77218;DHT22;66214;51.302;17.068;2023-12-22T03:04:47;3.94;73.62
77218;DHT22;66214;51.302;17.068;2023-12-22T03:10:42;3.73;73.30
77218;DHT22;66214;51.302;17.068;2023-12-22T03:13:10;3.66;73.31
77218;DHT22;66214;51.302;17.068;2023-12-22T03:15:38;3.61;73.19
77218;DHT22;66214;51.302;17.068;2023-12-22T03:18:06;3.58;73.06
77218;DHT22;66214;51.302;17.068;2023-12-22T03:20:34;3.57;72.80
77218;DHT22;66214;51.302;17.068;2023-12-22T03:23:02;3.55;72.93
77218;DHT22;66214;51.302;17.068;2023-12-22T03:25:30;3.53;72.90
77218;DHT22;66214;51.302;17.068;2023-12-22T03:27:58;3.50;72.86
77218;DHT22;66214;51.302;17.068;2023-12-22T03:30:27;3.49;72.49
77218;DHT22;66214;51.302;17.068;2023-12-22T03:32:55;3.49;72.76
77218;DHT22;66214;51.302;17.068;2023-12-22T03:35:23;3.51;73.09
77218;DHT22;66214;51.302;17.068;2023-12-22T03:37:51;3.54;72.41
77218;DHT22;66214;51.302;17.068;2023-12-22T03:40:18;3.57;72.30
77218;DHT22;66214;51.302;17.068;2023-12-22T03:42:47;3.59;72.28
77218;DHT22;66214;51.302;17.068;2023-12-22T03:45:15;3.59;72.40
77218;DHT22;66214;51.302;17.068;2023-12-22T03:47:43;3.59;72.58
77218;DHT22;66214;51.302;17.068;2023-12-22T03:50:11;3.62;72.71
77218;DHT22;66214;51.302;17.068;2023-12-22T03:52:39;3.65;72.85
77218;DHT22;66214;51.302;17.068;2023-12-22T03:55:07;3.67;72.46
77218;DHT22;66214;51.302;17.068;2023-12-22T03:57:35;3.67;72.36
77218;DHT22;66214;51.302;17.068;2023-12-22T04:00:04;3.67;72.57
77218;DHT22;66214;51.302;17.068;2023-12-22T04:02:33;3.65;72.77
77218;DHT22;66214;51.302;17.068;2023-12-22T04:05:01;3.62;72.61
77218;DHT22;66214;51.302;17.068;2023-12-22T04:07:29;3.60;73.13
77218;DHT22;66214;51.302;17.068;2023-12-22T04:09:57;3.56;73.17
77218;DHT22;66214;51.302;17.068;2023-12-22T04:12:25;3.53;73.41
77218;DHT22;66214;51.302;17.068;2023-12-22T04:14:53;3.47;73.73
77218;DHT22;66214;51.302;17.068;2023-12-22T04:17:21;3.41;74.05
77218;DHT22;66214;51.302;17.068;2023-12-22T04:19:49;3.33;74.44
77218;DHT22;66214;51.302;17.068;2023-12-22T04:22:18;3.28;75.32
77218;DHT22;66214;51.302;17.068;2023-12-22T04:24:46;3.20;75.96
77218;DHT22;66214;51.302;17.068;2023-12-22T04:27:14;3.15;75.93
77218;DHT22;66214;51.302;17.068;2023-12-22T04:29:42;3.09;76.16
77218;DHT22;66214;51.302;17.068;2023-12-22T04:32:10;3.03;76.40
77218;DHT22;66214;51.302;17.068;2023-12-22T04:34:38;3.01;76.82
77218;DHT22;66214;51.302;17.068;2023-12-22T04:37:06;3.02;77.08
77218;DHT22;66214;51.302;17.068;2023-12-22T04:39:34;3.02;77.15
77218;DHT22;66214;51.302;17.068;2023-12-22T04:42:03;2.99;77.04
77218;DHT22;66214;51.302;17.068;2023-12-22T04:44:31;3.00;76.89
77218;DHT22;66214;51.302;17.068;2023-12-22T04:46:59;3.00;76.98
77218;DHT22;66214;51.302;17.068;2023-12-22T04:49:28;3.05;76.95
77218;DHT22;66214;51.302;17.068;2023-12-22T04:51:56;3.10;77.01
77218;DHT22;66214;51.302;17.068;2023-12-22T04:54:25;3.13;77.05
77218;DHT22;66214;51.302;17.068;2023-12-22T04:56:53;3.17;76.23
77218;DHT22;66214;51.302;17.068;2023-12-22T04:59:21;3.18;76.05
77218;DHT22;66214;51.302;17.068;2023-12-22T05:03:38;3.13;75.90
77218;DHT22;66214;51.302;17.068;2023-12-22T05:06:06;3.16;75.65
77218;DHT22;66214;51.302;17.068;2023-12-22T05:08:35;3.17;75.56
77218;DHT22;66214;51.302;17.068;2023-12-22T05:11:03;3.19;75.00
77218;DHT22;66214;51.302;17.068;2023-12-22T05:13:31;3.20;74.49
77218;DHT22;66214;51.302;17.068;2023-12-22T05:16:00;3.20;74.19
77218;DHT22;66214;51.302;17.068;2023-12-22T05:18:28;3.20;74.10
77218;DHT22;66214;51.302;17.068;2023-12-22T05:24:23;3.27;74.74
77218;DHT22;66214;51.302;17.068;2023-12-22T05:26:52;3.27;73.77
77218;DHT22;66214;51.302;17.068;2023-12-22T05:29:20;3.27;73.80
77218;DHT22;66214;51.302;17.068;2023-12-22T05:31:48;3.25;73.72
77218;DHT22;66214;51.302;17.068;2023-12-22T05:34:17;3.22;74.02
77218;DHT22;66214;51.302;17.068;2023-12-22T05:36:45;3.22;74.45
77218;DHT22;66214;51.302;17.068;2023-12-22T05:39:13;3.23;74.73
77218;DHT22;66214;51.302;17.068;2023-12-22T05:41:41;3.21;74.73
77218;DHT22;66214;51.302;17.068;2023-12-22T05:44:09;3.19;74.48
77218;DHT22;66214;51.302;17.068;2023-12-22T05:46:37;3.16;74.46
77218;DHT22;66214;51.302;17.068;2023-12-22T05:49:06;3.13;74.37
77218;DHT22;66214;51.302;17.068;2023-12-22T05:51:40;3.12;74.48
77218;DHT22;66214;51.302;17.068;2023-12-22T05:54:08;3.13;74.89
77218;DHT22;66214;51.302;17.068;2023-12-22T05:56:37;3.12;75.29
77218;DHT22;66214;51.302;17.068;2023-12-22T05:59:05;3.11;74.89
77218;DHT22;66214;51.302;17.068;2023-12-22T06:01:34;3.10;74.73
77218;DHT22;66214;51.302;17.068;2023-12-22T06:04:02;3.09;74.74
77218;DHT22;66214;51.302;17.068;2023-12-22T06:06:30;3.07;74.97
77218;DHT22;66214;51.302;17.068;2023-12-22T06:08:58;3.08;75.17
77218;DHT22;66214;51.302;17.068;2023-12-22T06:11:26;3.13;75.58
77218;DHT22;66214;51.302;17.068;2023-12-22T06:13:54;3.14;76.05
77218;DHT22;66214;51.302;17.068;2023-12-22T06:16:22;3.15;75.75
77218;DHT22;66214;51.302;17.068;2023-12-22T06:18:50;3.15;75.75
77218;DHT22;66214;51.302;17.068;2023-12-22T06:21:18;3.11;75.65
77218;DHT22;66214;51.302;17.068;2023-12-22T06:23:47;3.08;75.68
77218;DHT22;66214;51.302;17.068;2023-12-22T06:29:42;3.14;76.78
77218;DHT22;66214;51.302;17.068;2023-12-22T06:32:10;3.16;76.71
77218;DHT22;66214;51.302;17.068;2023-12-22T06:34:39;3.20;76.26
77218;DHT22;66214;51.302;17.068;2023-12-22T06:37:07;3.24;76.20
77218;DHT22;66214;51.302;17.068;2023-12-22T06:39:35;3.25;76.33
77218;DHT22;66214;51.302;17.068;2023-12-22T06:42:03;3.26;76.67
77218;DHT22;66214;51.302;17.068;2023-12-22T06:44:38;3.29;77.24
77218;DHT22;66214;51.302;17.068;2023-12-22T06:47:11;3.32;77.23
77218;DHT22;66214;51.302;17.068;2023-12-22T06:49:39;3.34;77.17
77218;DHT22;66214;51.302;17.068;2023-12-22T06:52:07;3.35;77.07
77218;DHT22;66214;51.302;17.068;2023-12-22T06:54:35;3.34;76.89
77218;DHT22;66214;51.302;17.068;2023-12-22T06:57:03;3.35;76.84
77218;DHT22;66214;51.302;17.068;2023-12-22T06:59:32;3.36;77.47
77218;DHT22;66214;51.302;17.068;2023-12-22T07:02:01;3.38;77.97
77218;DHT22;66214;51.302;17.068;2023-12-22T07:07:55;3.40;77.41
77218;DHT22;66214;51.302;17.068;2023-12-22T07:10:23;3.42;77.29
77218;DHT22;66214;51.302;17.068;2023-12-22T07:12:51;3.45;77.55
77218;DHT22;66214;51.302;17.068;2023-12-22T07:15:19;3.51;77.63
77218;DHT22;66214;51.302;17.068;2023-12-22T07:17:47;3.54;77.33
77218;DHT22;66214;51.302;17.068;2023-12-22T07:20:15;3.59;77.46
77218;DHT22;66214;51.302;17.068;2023-12-22T07:22:44;3.62;77.30
77218;DHT22;66214;51.302;17.068;2023-12-22T07:25:13;3.70;77.25
77218;DHT22;66214;51.302;17.068;2023-12-22T07:27:41;3.77;77.14
77218;DHT22;66214;51.302;17.068;2023-12-22T07:30:09;3.81;77.10
77218;DHT22;66214;51.302;17.068;2023-12-22T07:36:06;3.63;78.74
77218;DHT22;66214;51.302;17.068;2023-12-22T07:38:35;3.45;79.91
77218;DHT22;66214;51.302;17.068;2023-12-22T07:41:07;3.22;80.79
77218;DHT22;66214;51.302;17.068;2023-12-22T07:43:36;3.01;82.04
77218;DHT22;66214;51.302;17.068;2023-12-22T07:46:04;2.87;83.00
77218;DHT22;66214;51.302;17.068;2023-12-22T07:48:32;2.76;83.37
77218;DHT22;66214;51.302;17.068;2023-12-22T07:51:00;2.70;83.48
77218;DHT22;66214;51.302;17.068;2023-12-22T07:53:29;2.64;84.05
77218;DHT22;66214;51.302;17.068;2023-12-22T07:55:57;2.56;84.29
77218;DHT22;66214;51.302;17.068;2023-12-22T07:58:26;2.47;84.74
77218;DHT22;66214;51.302;17.068;2023-12-22T08:03:38;2.32;85.83
77218;DHT22;66214;51.302;17.068;2023-12-22T08:06:06;2.27;85.94
77218;DHT22;66214;51.302;17.068;2023-12-22T08:08:35;2.23;86.09
77218;DHT22;66214;51.302;17.068;2023-12-22T08:11:04;2.22;86.63
77218;DHT22;66214;51.302;17.068;2023-12-22T08:13:32;2.20;87.35
77218;DHT22;66214;51.302;17.068;2023-12-22T08:16:00;2.20;87.59
77218;DHT22;66214;51.302;17.068;2023-12-22T08:18:28;2.22;88.03
77218;DHT22;66214;51.302;17.068;2023-12-22T08:20:56;2.24;88.29
77218;DHT22;66214;51.302;17.068;2023-12-22T08:23:24;2.27;88.47
77218;DHT22;66214;51.302;17.068;2023-12-22T08:25:52;2.30;88.45
77218;DHT22;66214;51.302;17.068;2023-12-22T08:28:20;2.32;88.31
77218;DHT22;66214;51.302;17.068;2023-12-22T08:30:48;2.37;88.08
77218;DHT22;66214;51.302;17.068;2023-12-22T08:33:16;2.45;88.05
77218;DHT22;66214;51.302;17.068;2023-12-22T08:35:44;2.49;87.91
77218;DHT22;66214;51.302;17.068;2023-12-22T08:38:12;2.55;87.74
77218;DHT22;66214;51.302;17.068;2023-12-22T08:40:41;2.60;87.46
77218;DHT22;66214;51.302;17.068;2023-12-22T08:46:21;2.77;86.22
77218;DHT22;66214;51.302;17.068;2023-12-22T08:48:53;2.80;85.98
77218;DHT22;66214;51.302;17.068;2023-12-22T08:51:22;2.82;85.61
77218;DHT22;66214;51.302;17.068;2023-12-22T08:53:55;2.85;85.34
77218;DHT22;66214;51.302;17.068;2023-12-22T08:56:23;2.83;85.12
77218;DHT22;66214;51.302;17.068;2023-12-22T08:58:52;2.82;84.20
77218;DHT22;66214;51.302;17.068;2023-12-22T09:01:26;2.83;84.28
77218;DHT22;66214;51.302;17.068;2023-12-22T09:03:54;2.82;84.29
77218;DHT22;66214;51.302;17.068;2023-12-22T09:06:23;2.83;84.05
77218;DHT22;66214;51.302;17.068;2023-12-22T09:08:52;2.86;83.61
77218;DHT22;66214;51.302;17.068;2023-12-22T11:03:39;4.10;72.75
77218;DHT22;66214;51.302;17.068;2023-12-22T11:09:34;4.14;72.57
77218;DHT22;66214;51.302;17.068;2023-12-22T11:12:04;4.21;73.15
77218;DHT22;66214;51.302;17.068;2023-12-22T11:14:33;4.23;71.88
77218;DHT22;66214;51.302;17.068;2023-12-22T11:17:02;4.26;71.16
77218;DHT22;66214;51.302;17.068;2023-12-22T11:19:33;4.33;71.17
77218;DHT22;66214;51.302;17.068;2023-12-22T11:22:04;4.37;70.42
77218;DHT22;66214;51.302;17.068;2023-12-22T11:24:34;4.34;69.17
77218;DHT22;66214;51.302;17.068;2023-12-22T11:27:04;4.32;69.25
77218;DHT22;66214;51.302;17.068;2023-12-22T11:29:34;4.38;67.76
77218;DHT22;66214;51.302;17.068;2023-12-22T11:32:05;4.40;67.13
77218;DHT22;66214;51.302;17.068;2023-12-22T11:34:35;4.43;65.99
77218;DHT22;66214;51.302;17.068;2023-12-22T11:37:04;4.43;65.51
77218;DHT22;66214;51.302;17.068;2023-12-22T11:39:34;4.46;66.41
77218;DHT22;66214;51.302;17.068;2023-12-22T11:42:03;4.42;66.93
77218;DHT22;66214;51.302;17.068;2023-12-22T11:44:33;4.40;66.73
77218;DHT22;66214;51.302;17.068;2023-12-22T11:47:04;4.42;67.56
77218;DHT22;66214;51.302;17.068;2023-12-22T11:49:37;4.46;67.09
77218;DHT22;66214;51.302;17.068;2023-12-22T11:52:10;4.52;66.03
77218;DHT22;66214;51.302;17.068;2023-12-22T11:54:49;4.52;65.67
77218;DHT22;66214;51.302;17.068;2023-12-22T12:00:06;4.48;65.79
77218;DHT22;66214;51.302;17.068;2023-12-22T12:02:39;4.50;66.06
77218;DHT22;66214;51.302;17.068;2023-12-22T12:05:09;4.52;65.44
77218;DHT22;66214;51.302;17.068;2023-12-22T12:07:41;4.52;65.33
77218;DHT22;66214;51.302;17.068;2023-12-22T12:13:11;4.50;65.35
77218;DHT22;66214;51.302;17.068;2023-12-22T12:15:43;4.52;65.48
77218;DHT22;66214;51.302;17.068;2023-12-22T12:18:11;4.51;64.98
77218;DHT22;66214;51.302;17.068;2023-12-22T12:23:48;4.55;65.38
77218;DHT22;66214;51.302;17.068;2023-12-22T12:26:17;4.56;65.26
77218;DHT22;66214;51.302;17.068;2023-12-22T12:28:47;4.53;63.24
77218;DHT22;66214;51.302;17.068;2023-12-22T12:31:17;4.54;62.65
77218;DHT22;66214;51.302;17.068;2023-12-22T12:33:45;4.56;62.45
77218;DHT22;66214;51.302;17.068;2023-12-22T12:36:14;4.55;62.10
77218;DHT22;66214;51.302;17.068;2023-12-22T12:44:48;4.63;62.24
77218;DHT22;66214;51.302;17.068;2023-12-22T12:47:17;4.67;62.22
77218;DHT22;66214;51.302;17.068;2023-12-22T12:49:45;4.67;61.12
77218;DHT22;66214;51.302;17.068;2023-12-22T12:52:13;4.68;61.52
77218;DHT22;66214;51.302;17.068;2023-12-22T12:54:43;4.68;60.73
77218;DHT22;66214;51.302;17.068;2023-12-22T12:57:15;4.70;60.40
77218;DHT22;66214;51.302;17.068;2023-12-22T12:59:44;4.74;60.16
77218;DHT22;66214;51.302;17.068;2023-12-22T13:02:17;4.73;60.63
77218;DHT22;66214;51.302;17.068;2023-12-22T13:04:47;4.70;60.47
77218;DHT22;66214;51.302;17.068;2023-12-22T13:07:23;4.67;60.59
77218;DHT22;66214;51.302;17.068;2023-12-22T13:09:53;4.64;60.81
77218;DHT22;66214;51.302;17.068;2023-12-22T13:12:22;4.61;60.54
77218;DHT22;66214;51.302;17.068;2023-12-22T13:14:52;4.60;59.66
77218;DHT22;66214;51.302;17.068;2023-12-22T13:17:20;4.59;59.22
77218;DHT22;66214;51.302;17.068;2023-12-22T13:19:49;4.58;60.20
77218;DHT22;66214;51.302;17.068;2023-12-22T13:22:18;4.58;60.40
77218;DHT22;66214;51.302;17.068;2023-12-22T13:24:55;4.59;60.38
77218;DHT22;66214;51.302;17.068;2023-12-22T13:27:25;4.59;60.92
77218;DHT22;66214;51.302;17.068;2023-12-22T13:29:54;4.58;60.36
77218;DHT22;66214;51.302;17.068;2023-12-22T13:32:22;4.59;60.32
77218;DHT22;66214;51.302;17.068;2023-12-22T13:34:55;4.58;60.03
77218;DHT22;66214;51.302;17.068;2023-12-22T13:37:24;4.57;59.61
77218;DHT22;66214;51.302;17.068;2023-12-22T13:39:58;4.57;59.45
77218;DHT22;66214;51.302;17.068;2023-12-22T13:42:27;4.55;59.26
77218;DHT22;66214;51.302;17.068;2023-12-22T13:44:55;4.50;59.72
77218;DHT22;66214;51.302;17.068;2023-12-22T13:47:23;4.46;59.44
77218;DHT22;66214;51.302;17.068;2023-12-22T13:49:52;4.42;59.69
77218;DHT22;66214;51.302;17.068;2023-12-22T13:52:32;4.41;59.58
77218;DHT22;66214;51.302;17.068;2023-12-22T13:55:09;4.39;59.77
77218;DHT22;66214;51.302;17.068;2023-12-22T13:57:42;4.39;59.67
77218;DHT22;66214;51.302;17.068;2023-12-22T14:03:39;4.34;60.99
77218;DHT22;66214;51.302;17.068;2023-12-22T14:06:07;4.33;60.66
77218;DHT22;66214;51.302;17.068;2023-12-22T14:08:39;4.31;59.75
77218;DHT22;66214;51.302;17.068;2023-12-22T14:11:11;4.32;59.47
77218;DHT22;66214;51.302;17.068;2023-12-22T14:13:39;4.33;59.59
77218;DHT22;66214;51.302;17.068;2023-12-22T14:16:08;4.31;59.77
77218;DHT22;66214;51.302;17.068;2023-12-22T14:18:36;4.30;59.90
77218;DHT22;66214;51.302;17.068;2023-12-22T14:21:05;4.30;60.12
77218;DHT22;66214;51.302;17.068;2023-12-22T14:23:33;4.29;60.66
77218;DHT22;66214;51.302;17.068;2023-12-22T14:26:01;4.28;60.46
77218;DHT22;66214;51.302;17.068;2023-12-22T14:28:29;4.27;61.17
77218;DHT22;66214;51.302;17.068;2023-12-22T14:30:58;4.25;60.79
77218;DHT22;66214;51.302;17.068;2023-12-22T14:33:26;4.21;61.10
77218;DHT22;66214;51.302;17.068;2023-12-22T14:35:54;4.17;61.01
77218;DHT22;66214;51.302;17.068;2023-12-22T14:38:22;4.14;60.81
77218;DHT22;66214;51.302;17.068;2023-12-22T14:40:50;4.10;60.94
77218;DHT22;66214;51.302;17.068;2023-12-22T14:43:19;4.07;61.23
77218;DHT22;66214;51.302;17.068;2023-12-22T14:45:47;4.02;61.14
77218;DHT22;66214;51.302;17.068;2023-12-22T14:48:15;3.98;61.65
77218;DHT22;66214;51.302;17.068;2023-12-22T14:50:51;3.89;62.14
77218;DHT22;66214;51.302;17.068;2023-12-22T14:53:20;3.83;61.65
77218;DHT22;66214;51.302;17.068;2023-12-22T14:55:48;3.79;61.67
77218;DHT22;66214;51.302;17.068;2023-12-22T14:58:16;3.74;61.96
77218;DHT22;66214;51.302;17.068;2023-12-22T15:00:44;3.72;62.13
77218;DHT22;66214;51.302;17.068;2023-12-22T15:03:13;3.71;62.35
77218;DHT22;66214;51.302;17.068;2023-12-22T15:05:42;3.71;62.24
77218;DHT22;66214;51.302;17.068;2023-12-22T15:08:10;3.71;62.36
77218;DHT22;66214;51.302;17.068;2023-12-22T15:10:39;3.71;62.53
77218;DHT22;66214;51.302;17.068;2023-12-22T15:13:07;3.72;62.53
77218;DHT22;66214;51.302;17.068;2023-12-22T15:15:35;3.71;62.64
77218;DHT22;66214;51.302;17.068;2023-12-22T15:18:03;3.67;62.48
77218;DHT22;66214;51.302;17.068;2023-12-22T15:20:33;3.66;62.48
77218;DHT22;66214;51.302;17.068;2023-12-22T15:23:01;3.67;62.26
77218;DHT22;66214;51.302;17.068;2023-12-22T15:25:30;3.68;62.39
77218;DHT22;66214;51.302;17.068;2023-12-22T15:27:58;3.67;62.49
77218;DHT22;66214;51.302;17.068;2023-12-22T15:30:26;3.66;62.69
77218;DHT22;66214;51.302;17.068;2023-12-22T15:32:55;3.65;62.98
77218;DHT22;66214;51.302;17.068;2023-12-22T15:35:23;3.61;63.24
77218;DHT22;66214;51.302;17.068;2023-12-22T15:37:52;3.58;62.98
77218;DHT22;66214;51.302;17.068;2023-12-22T15:40:20;3.54;63.27
77218;DHT22;66214;51.302;17.068;2023-12-22T15:42:48;3.52;63.59
77218;DHT22;66214;51.302;17.068;2023-12-22T15:45:16;3.49;63.89
77218;DHT22;66214;51.302;17.068;2023-12-22T15:47:44;3.51;63.88
77218;DHT22;66214;51.302;17.068;2023-12-22T15:50:12;3.54;63.47
77218;DHT22;66214;51.302;17.068;2023-12-22T15:52:41;3.57;63.85
77218;DHT22;66214;51.302;17.068;2023-12-22T15:55:10;3.58;63.80
77218;DHT22;66214;51.302;17.068;2023-12-22T15:57:39;3.62;63.19
77218;DHT22;66214;51.302;17.068;2023-12-22T16:00:08;3.64;63.05
77218;DHT22;66214;51.302;17.068;2023-12-22T16:02:37;3.67;62.73
77218;DHT22;66214;51.302;17.068;2023-12-22T16:05:06;3.68;62.60
77218;DHT22;66214;51.302;17.068;2023-12-22T16:07:36;3.68;62.37
77218;DHT22;66214;51.302;17.068;2023-12-22T16:10:05;3.65;62.62
77218;DHT22;66214;51.302;17.068;2023-12-22T16:15:48;3.54;63.35
77218;DHT22;66214;51.302;17.068;2023-12-22T16:18:16;3.48;63.32
77218;DHT22;66214;51.302;17.068;2023-12-22T16:20:44;3.43;63.13
77218;DHT22;66214;51.302;17.068;2023-12-22T16:23:12;3.37;63.44
77218;DHT22;66214;51.302;17.068;2023-12-22T16:25:41;3.31;63.75
77218;DHT22;66214;51.302;17.068;2023-12-22T16:28:09;3.24;63.90
77218;DHT22;66214;51.302;17.068;2023-12-22T16:30:37;3.17;64.19
77218;DHT22;66214;51.302;17.068;2023-12-22T16:33:05;3.12;64.39
77218;DHT22;66214;51.302;17.068;2023-12-22T16:35:33;3.08;64.59
77218;DHT22;66214;51.302;17.068;2023-12-22T16:38:01;3.04;64.91
77218;DHT22;66214;51.302;17.068;2023-12-22T16:40:30;3.02;65.34
77218;DHT22;66214;51.302;17.068;2023-12-22T16:42:58;3.02;65.81
77218;DHT22;66214;51.302;17.068;2023-12-22T16:45:26;3.02;65.64
77218;DHT22;66214;51.302;17.068;2023-12-22T16:47:54;3.03;65.83
77218;DHT22;66214;51.302;17.068;2023-12-22T16:50:22;3.02;65.61
77218;DHT22;66214;51.302;17.068;2023-12-22T16:52:50;3.03;65.25
77218;DHT22;66214;51.302;17.068;2023-12-22T16:55:19;3.02;65.17
77218;DHT22;66214;51.302;17.068;2023-12-22T16:57:47;2.99;65.08
77218;DHT22;66214;51.302;17.068;2023-12-22T17:03:42;2.95;65.36
77218;DHT22;66214;51.302;17.068;2023-12-22T17:06:10;2.95;65.34
77218;DHT22;66214;51.302;17.068;2023-12-22T17:08:39;2.92;65.39
77218;DHT22;66214;51.302;17.068;2023-12-22T17:11:08;2.88;65.37
77218;DHT22;66214;51.302;17.068;2023-12-22T17:13:36;2.86;65.41
77218;DHT22;66214;51.302;17.068;2023-12-22T17:16:06;2.81;65.70
77218;DHT22;66214;51.302;17.068;2023-12-22T17:18:35;2.75;65.85
77218;DHT22;66214;51.302;17.068;2023-12-22T17:21:03;2.72;65.91
77218;DHT22;66214;51.302;17.068;2023-12-22T17:23:36;2.74;66.30
77218;DHT22;66214;51.302;17.068;2023-12-22T17:26:04;2.77;66.32
77218;DHT22;66214;51.302;17.068;2023-12-22T17:28:32;2.80;66.01
77218;DHT22;66214;51.302;17.068;2023-12-22T17:31:00;2.83;66.05
77218;DHT22;66214;51.302;17.068;2023-12-22T17:33:30;2.85;65.96
77218;DHT22;66214;51.302;17.068;2023-12-22T17:35:58;2.85;65.73
77218;DHT22;66214;51.302;17.068;2023-12-22T17:42:12;2.91;66.04
77218;DHT22;66214;51.302;17.068;2023-12-22T17:44:38;2.93;65.94
77218;DHT22;66214;51.302;17.068;2023-12-22T17:47:05;2.94;66.02
77218;DHT22;66214;51.302;17.068;2023-12-22T17:49:32;2.96;66.12
77218;DHT22;66214;51.302;17.068;2023-12-22T17:51:59;2.98;66.16
77218;DHT22;66214;51.302;17.068;2023-12-22T17:54:26;3.01;66.51
77218;DHT22;66214;51.302;17.068;2023-12-22T17:56:53;3.05;67.36
77218;DHT22;66214;51.302;17.068;2023-12-22T17:59:20;3.10;67.80
77218;DHT22;66214;51.302;17.068;2023-12-22T18:05:13;3.14;68.34
77218;DHT22;66214;51.302;17.068;2023-12-22T18:07:42;3.09;68.22
77218;DHT22;66214;51.302;17.068;2023-12-22T18:10:10;3.03;68.07
77218;DHT22;66214;51.302;17.068;2023-12-22T18:12:38;2.96;68.12
77218;DHT22;66214;51.302;17.068;2023-12-22T18:15:07;2.87;68.24
77218;DHT22;66214;51.302;17.068;2023-12-22T18:17:36;2.78;68.30
77218;DHT22;66214;51.302;17.068;2023-12-22T18:20:04;2.71;68.38
77218;DHT22;66214;51.302;17.068;2023-12-22T18:22:34;2.63;68.49
77218;DHT22;66214;51.302;17.068;2023-12-22T18:25:02;2.56;68.67
77218;DHT22;66214;51.302;17.068;2023-12-22T18:27:31;2.53;69.19
77218;DHT22;66214;51.302;17.068;2023-12-22T18:29:59;2.51;69.59
77218;DHT22;66214;51.302;17.068;2023-12-22T18:32:28;2.52;69.46
77218;DHT22;66214;51.302;17.068;2023-12-22T18:34:57;2.51;69.01
77218;DHT22;66214;51.302;17.068;2023-12-22T18:37:26;2.50;68.83
77218;DHT22;66214;51.302;17.068;2023-12-22T18:39:54;2.49;68.81